createdAt,value
2018-09-29T00:00:01.539Z,101279.11
2018-09-29T00:00:38.039Z,101279.99
2018-09-29T00:01:12.704Z,101279.44
2018-09-29T00:01:47.866Z,101276.92
2018-09-29T00:02:22.631Z,101282.54
2018-09-29T00:02:57.629Z,101283.02
2018-09-29T00:03:32.457Z,101277.89
2018-09-29T00:04:07.508Z,101283.43
2018-09-29T00:04:42.142Z,101284.37
2018-09-29T00:05:16.928Z,101285.14
2018-09-29T00:05:51.705Z,101285.22
2018-09-29T00:06:26.625Z,101293.41
2018-09-29T00:07:01.391Z,101285.26
2018-09-29T00:07:36.101Z,101283.19
2018-09-29T00:08:10.757Z,101291.75
2018-09-29T00:08:45.437Z,101290.52
2018-09-29T00:09:20.233Z,101294.39
2018-09-29T00:09:55.469Z,101290.10
2018-09-29T00:10:30.413Z,101285.45
2018-09-29T00:11:05.217Z,101296.99
2018-09-29T00:11:40.209Z,101295.27
2018-09-29T00:12:14.934Z,101300.43
2018-09-29T00:12:49.699Z,101300.00
2018-09-29T00:13:24.466Z,101298.75
2018-09-29T00:13:59.318Z,101293.22
2018-09-29T00:14:34.124Z,101298.80
2018-09-29T00:15:09.447Z,101295.36
2018-09-29T00:15:44.175Z,101293.66
2018-09-29T00:16:19.217Z,101293.99
2018-09-29T00:16:55.082Z,101287.61
2018-09-29T00:17:29.811Z,101286.74
2018-09-29T00:18:04.505Z,101291.05
2018-09-29T00:18:39.269Z,101290.23
2018-09-29T00:19:13.924Z,101296.25
2018-09-29T00:19:49.123Z,101295.39
2018-09-29T00:20:23.990Z,101286.00
2018-09-29T00:20:58.966Z,101294.18
2018-09-29T00:21:33.793Z,101286.97
2018-09-29T00:22:08.924Z,101292.58
2018-09-29T00:22:43.613Z,101293.41
2018-09-29T00:23:18.539Z,101289.23
2018-09-29T00:23:53.515Z,101293.52
2018-09-29T00:24:28.745Z,101289.65
2018-09-29T00:25:03.637Z,101294.72
2018-09-29T00:25:38.744Z,101293.48
2018-09-29T00:26:13.401Z,101293.91
2018-09-29T00:26:48.453Z,101297.75
2018-09-29T00:27:23.243Z,101292.61
2018-09-29T00:27:58.223Z,101292.66
2018-09-29T00:28:32.925Z,101299.55
2018-09-29T00:29:07.984Z,101287.08
2018-09-29T00:29:42.641Z,101287.95
2018-09-29T00:30:17.578Z,101290.13
2018-09-29T00:30:52.328Z,101279.87
2018-09-29T00:31:27.531Z,101290.09
2018-09-29T00:32:02.262Z,101295.29
2018-09-29T00:32:37.342Z,101294.02
2018-09-29T00:33:12.001Z,101293.98
2018-09-29T00:33:46.530Z,101294.00
2018-09-29T00:34:21.373Z,101286.70
2018-09-29T00:34:56.393Z,101288.91
2018-09-29T00:35:31.135Z,101284.31
2018-09-29T00:36:06.156Z,101290.24
2018-09-29T00:36:41.104Z,101283.09
2018-09-29T00:37:16.071Z,101290.34
2018-09-29T00:37:51.059Z,101295.91
2018-09-29T00:38:26.216Z,101289.46
2018-09-29T00:39:01.373Z,101292.92
2018-09-29T00:39:36.073Z,101294.10
2018-09-29T00:40:10.766Z,101288.05
2018-09-29T00:40:45.463Z,101296.22
2018-09-29T00:41:20.801Z,101290.68
2018-09-29T00:41:55.595Z,101293.25
2018-09-29T00:42:30.308Z,101295.81
2018-09-29T00:43:05.032Z,101295.91
2018-09-29T00:43:40.102Z,101293.34
2018-09-29T00:44:14.804Z,101291.44
2018-09-29T00:44:49.908Z,101297.10
2018-09-29T00:45:24.633Z,101301.92
2018-09-29T00:45:59.729Z,101296.33
2018-09-29T00:46:34.494Z,101290.77
2018-09-29T00:47:09.649Z,101293.26
2018-09-29T00:47:44.344Z,101288.56
2018-09-29T00:48:19.290Z,101292.02
2018-09-29T00:48:54.230Z,101293.75
2018-09-29T00:49:29.311Z,101289.89
2018-09-29T00:50:04.071Z,101292.45
2018-09-29T00:50:39.037Z,101276.15
2018-09-29T00:51:13.917Z,101279.21
2018-09-29T00:51:48.902Z,101283.97
2018-09-29T00:52:23.696Z,101282.67
2018-09-29T00:52:58.780Z,101282.27
2018-09-29T00:53:33.451Z,101286.98
2018-09-29T00:54:08.137Z,101273.66
2018-09-29T00:54:42.955Z,101275.39
2018-09-29T00:55:17.844Z,101277.11
2018-09-29T00:55:53.385Z,101276.73
2018-09-29T00:56:28.230Z,101279.78
2018-09-29T00:57:03.133Z,101278.05
2018-09-29T00:57:37.793Z,101281.49
2018-09-29T00:58:12.548Z,101283.56
2018-09-29T00:58:47.510Z,101283.19
2018-09-29T00:59:22.275Z,101283.18
2018-09-29T00:59:57.024Z,101281.45
2018-09-29T01:00:31.845Z,101280.19
2018-09-29T01:01:07.588Z,101283.22
2018-09-29T01:01:42.307Z,101282.28
2018-09-29T01:02:17.095Z,101275.89
2018-09-29T01:02:52.868Z,101279.32
2018-09-29T01:03:27.640Z,101279.41
2018-09-29T01:04:02.554Z,101275.98
2018-09-29T01:04:38.544Z,101274.26
2018-09-29T01:05:13.457Z,101278.15
2018-09-29T01:05:49.171Z,101278.56
2018-09-29T01:06:23.918Z,101277.30
2018-09-29T01:06:58.729Z,101281.17
2018-09-29T01:07:34.137Z,101278.22
2018-09-29T01:08:08.824Z,101282.55
2018-09-29T01:08:43.996Z,101277.81
2018-09-29T01:09:18.663Z,101279.59
2018-09-29T01:09:53.802Z,101280.45
2018-09-29T01:10:28.646Z,101274.46
2018-09-29T01:11:03.916Z,101282.20
2018-09-29T01:11:38.590Z,101278.33
2018-09-29T01:12:13.771Z,101280.54
2018-09-29T01:12:48.530Z,101275.73
2018-09-29T01:13:23.285Z,101276.67
2018-09-29T01:13:58.959Z,101278.34
2018-09-29T01:14:33.644Z,101275.39
2018-09-29T01:15:09.185Z,101283.14
2018-09-29T01:15:44.192Z,101278.42
2018-09-29T01:16:19.165Z,101278.47
2018-09-29T01:16:54.483Z,101282.28
2018-09-29T01:17:29.392Z,101272.84
2018-09-29T01:18:04.068Z,101273.31
2018-09-29T01:18:39.391Z,101272.39
2018-09-29T01:19:14.110Z,101268.16
2018-09-29T01:19:49.120Z,101274.63
2018-09-29T01:20:23.860Z,101269.48
2018-09-29T01:20:58.862Z,101270.31
2018-09-29T01:21:33.987Z,101274.17
2018-09-29T01:22:09.113Z,101274.99
2018-09-29T01:22:44.026Z,101272.39
2018-09-29T01:23:19.077Z,101274.63
2018-09-29T01:23:53.912Z,101276.80
2018-09-29T01:24:29.004Z,101275.89
2018-09-29T01:25:03.742Z,101277.64
2018-09-29T01:25:38.612Z,101285.81
2018-09-29T01:26:13.312Z,101282.77
2018-09-29T01:26:48.451Z,101285.38
2018-09-29T01:27:23.294Z,101281.92
2018-09-29T01:27:58.537Z,101278.08
2018-09-29T01:28:33.226Z,101285.03
2018-09-29T01:29:08.524Z,101279.44
2018-09-29T01:29:43.197Z,101288.88
2018-09-29T01:30:18.329Z,101286.73
2018-09-29T01:30:53.037Z,101279.79
2018-09-29T01:31:28.164Z,101277.66
2018-09-29T01:32:03.198Z,101279.34
2018-09-29T01:32:38.341Z,101280.58
2018-09-29T01:33:13.033Z,101278.91
2018-09-29T01:33:48.210Z,101278.91
2018-09-29T01:34:23.198Z,101277.18
2018-09-29T01:34:58.261Z,101242.12
2018-09-29T01:35:32.941Z,101280.19
2018-09-29T01:36:08.089Z,101276.77
2018-09-29T01:36:42.853Z,101284.02
2018-09-29T01:37:18.050Z,101282.27
2018-09-29T01:37:53.247Z,101272.45
2018-09-29T01:38:28.411Z,101281.35
2018-09-29T01:39:03.608Z,101283.58
2018-09-29T01:39:38.647Z,101281.00
2018-09-29T01:40:13.340Z,101284.52
2018-09-29T01:40:48.883Z,101290.52
2018-09-29T01:41:23.992Z,101282.00
2018-09-29T01:41:59.230Z,101288.81
2018-09-29T01:42:33.945Z,101289.24
2018-09-29T01:43:08.913Z,101284.52
2018-09-29T01:43:43.566Z,101284.52
2018-09-29T01:44:18.630Z,101285.37
2018-09-29T01:44:53.519Z,101282.80
2018-09-29T01:45:28.727Z,101280.66
2018-09-29T01:46:03.415Z,101279.00
2018-09-29T01:46:39.117Z,101282.00
2018-09-29T01:47:14.104Z,101282.00
2018-09-29T01:47:48.773Z,101282.38
2018-09-29T01:48:23.942Z,101278.16
2018-09-29T01:48:58.835Z,101284.66
2018-09-29T01:49:33.456Z,101286.39
2018-09-29T01:50:08.493Z,101282.98
2018-09-29T01:50:43.466Z,101286.86
2018-09-29T01:51:18.168Z,101279.50
2018-09-29T01:51:53.800Z,101274.83
2018-09-29T01:52:28.968Z,101282.52
2018-09-29T01:53:03.787Z,101273.50
2018-09-29T01:53:38.687Z,101275.22
2018-09-29T01:54:13.473Z,101279.92
2018-09-29T01:54:48.189Z,101280.38
2018-09-29T01:55:22.976Z,101276.97
2018-09-29T01:55:58.009Z,101275.28
2018-09-29T01:56:32.810Z,101280.47
2018-09-29T01:57:07.481Z,101280.86
2018-09-29T01:57:45.168Z,101276.99
2018-09-29T01:58:19.889Z,101281.34
2018-09-29T01:58:54.890Z,101280.48
2018-09-29T01:59:29.821Z,101275.78
2018-09-29T02:00:04.791Z,101277.55
2018-09-29T02:00:39.880Z,101274.92
2018-09-29T02:01:14.600Z,101279.22
2018-09-29T02:01:49.284Z,101274.55
2018-09-29T02:02:24.313Z,101275.75
2018-09-29T02:03:03.376Z,101279.14
2018-09-29T02:03:38.092Z,101278.27
2018-09-29T02:04:12.817Z,101274.47
2018-09-29T02:04:47.522Z,101274.47
2018-09-29T02:05:22.224Z,101277.92
2018-09-29T02:05:57.507Z,101276.20
2018-09-29T02:06:32.423Z,101272.78
2018-09-29T02:07:07.103Z,101277.50
2018-09-29T02:07:41.795Z,101268.96
2018-09-29T02:08:16.509Z,101264.73
2018-09-29T02:08:51.189Z,101272.40
2018-09-29T02:09:26.223Z,101268.55
2018-09-29T02:10:01.241Z,101265.61
2018-09-29T02:10:36.324Z,101271.56
2018-09-29T02:11:10.989Z,101272.41
2018-09-29T02:11:45.706Z,101270.63
2018-09-29T02:12:20.466Z,101267.17
2018-09-29T02:12:55.388Z,101271.13
2018-09-29T02:13:30.452Z,101266.81
2018-09-29T02:14:05.476Z,101271.57
2018-09-29T02:14:40.148Z,101272.91
2018-09-29T02:15:14.792Z,101270.34
2018-09-29T02:15:49.452Z,101270.41
2018-09-29T02:16:24.836Z,101277.69
2018-09-29T02:16:59.673Z,101271.26
2018-09-29T02:17:34.337Z,101278.50
2018-09-29T02:18:09.786Z,101268.23
2018-09-29T02:18:44.496Z,101277.21
2018-09-29T02:19:19.140Z,101273.78
2018-09-29T02:19:54.083Z,101274.67
2018-09-29T02:20:29.147Z,101270.77
2018-09-29T02:21:03.820Z,101269.91
2018-09-29T02:21:38.489Z,101265.20
2018-09-29T02:22:13.283Z,101272.92
2018-09-29T02:22:47.957Z,101267.82
2018-09-29T02:23:22.859Z,101276.78
2018-09-29T02:23:57.886Z,101260.53
2018-09-29T02:24:32.742Z,101273.39
2018-09-29T02:25:07.881Z,101272.53
2018-09-29T02:25:42.532Z,101265.24
2018-09-29T02:26:17.187Z,101267.82
2018-09-29T02:26:51.388Z,101272.56
2018-09-29T02:27:26.378Z,101270.39
2018-09-29T02:28:01.229Z,101272.53
2018-09-29T02:28:36.037Z,101269.11
2018-09-29T02:29:10.886Z,101276.83
2018-09-29T02:29:45.568Z,101260.16
2018-09-29T02:30:20.594Z,101272.14
2018-09-29T02:30:55.750Z,101263.95
2018-09-29T02:31:30.586Z,101273.83
2018-09-29T02:32:05.280Z,101270.39
2018-09-29T02:32:40.053Z,101276.41
2018-09-29T02:33:14.728Z,101263.98
2018-09-29T02:33:49.488Z,101263.53
2018-09-29T02:34:24.510Z,101261.74
2018-09-29T02:34:59.374Z,101265.19
2018-09-29T02:35:34.174Z,101255.37
2018-09-29T02:36:08.871Z,101258.83
2018-09-29T02:36:43.954Z,101261.38
2018-09-29T02:37:18.613Z,101263.09
2018-09-29T02:37:53.643Z,101263.89
2018-09-29T02:38:28.865Z,101255.38
2018-09-29T02:39:04.657Z,101249.42
2018-09-29T02:39:39.360Z,101255.81
2018-09-29T02:40:14.119Z,101257.94
2018-09-29T02:40:48.816Z,101256.25
2018-09-29T02:41:24.059Z,101255.44
2018-09-29T02:41:58.961Z,101259.73
2018-09-29T02:42:33.934Z,101258.38
2018-09-29T02:43:08.618Z,101255.00
2018-09-29T02:43:43.362Z,101254.14
2018-09-29T02:44:18.092Z,101255.45
2018-09-29T02:44:53.331Z,101253.72
2018-09-29T02:45:28.259Z,101250.30
2018-09-29T02:46:02.976Z,101259.31
2018-09-29T02:46:38.092Z,101259.31
2018-09-29T02:47:12.903Z,101254.16
2018-09-29T02:47:47.615Z,101255.51
2018-09-29T02:48:22.449Z,101256.36
2018-09-29T02:48:57.406Z,101259.31
2018-09-29T02:49:32.308Z,101253.28
2018-09-29T02:50:07.554Z,101253.28
2018-09-29T02:50:42.237Z,101256.74
2018-09-29T02:51:16.943Z,101255.44
2018-09-29T02:51:51.672Z,101258.44
2018-09-29T02:52:26.767Z,101252.88
2018-09-29T02:53:01.703Z,101254.22
2018-09-29T02:53:36.406Z,101253.37
2018-09-29T02:54:11.136Z,101250.80
2018-09-29T02:54:45.964Z,101256.38
2018-09-29T02:55:20.681Z,101257.23
2018-09-29T02:55:55.756Z,101251.28
2018-09-29T02:56:30.827Z,101250.37
2018-09-29T02:57:05.611Z,101253.00
2018-09-29T02:57:40.248Z,101256.85
2018-09-29T02:58:14.957Z,101256.00
2018-09-29T02:58:49.666Z,101257.71
2018-09-29T02:59:24.842Z,101261.96
2018-09-29T02:59:59.791Z,101265.44
2018-09-29T03:00:34.630Z,101258.09
2018-09-29T03:01:09.371Z,101263.25
2018-09-29T03:01:44.077Z,101262.01
2018-09-29T03:02:18.744Z,101260.30
2018-09-29T03:02:53.885Z,101264.09
2018-09-29T03:03:28.700Z,101256.42
2018-09-29T03:04:03.475Z,101262.88
2018-09-29T03:04:38.155Z,101257.77
2018-09-29T03:05:12.988Z,101263.34
2018-09-29T03:05:47.665Z,101263.73
2018-09-29T03:06:22.521Z,101260.34
2018-09-29T03:06:57.450Z,101266.30
2018-09-29T03:07:32.658Z,101262.06
2018-09-29T03:08:07.391Z,101261.96
2018-09-29T03:08:42.573Z,101268.02
2018-09-29T03:09:17.366Z,101269.78
2018-09-29T03:09:52.112Z,101275.38
2018-09-29T03:10:27.234Z,101274.51
2018-09-29T03:11:02.026Z,101272.80
2018-09-29T03:11:36.824Z,101276.23
2018-09-29T03:12:11.608Z,101274.51
2018-09-29T03:12:46.457Z,101271.51
2018-09-29T03:13:21.315Z,101276.22
2018-09-29T03:13:56.300Z,101268.83
2018-09-29T03:14:31.565Z,101272.30
2018-09-29T03:15:06.715Z,101268.03
2018-09-29T03:15:41.429Z,101273.64
2018-09-29T03:16:15.581Z,101275.80
2018-09-29T03:16:50.264Z,101274.08
2018-09-29T03:17:25.511Z,101270.22
2018-09-29T03:18:00.404Z,101269.37
2018-09-29T03:18:35.302Z,101271.08
2018-09-29T03:19:10.066Z,101273.27
2018-09-29T03:19:44.978Z,101274.56
2018-09-29T03:20:19.687Z,101268.55
2018-09-29T03:20:54.780Z,101279.24
2018-09-29T03:21:29.684Z,101270.70
2018-09-29T03:22:04.501Z,101278.43
2018-09-29T03:22:39.227Z,101271.19
2018-09-29T03:23:13.956Z,101276.73
2018-09-29T03:23:48.858Z,101270.77
2018-09-29T03:24:23.657Z,101275.95
2018-09-29T03:24:58.577Z,101290.50
2018-09-29T03:25:33.388Z,101282.78
2018-09-29T03:26:08.124Z,101281.50
2018-09-29T03:26:42.803Z,101274.63
2018-09-29T03:27:17.480Z,101278.00
2018-09-29T03:27:52.189Z,101275.48
2018-09-29T03:28:27.143Z,101276.81
2018-09-29T03:29:02.040Z,101277.25
2018-09-29T03:29:36.716Z,101278.53
2018-09-29T03:30:11.465Z,101274.25
2018-09-29T03:30:46.180Z,101281.97
2018-09-29T03:31:21.059Z,101282.02
2018-09-29T03:31:56.487Z,101278.59
2018-09-29T03:32:31.510Z,101285.02
2018-09-29T03:33:06.350Z,101282.45
2018-09-29T03:33:41.129Z,101281.16
2018-09-29T03:34:15.820Z,101282.45
2018-09-29T03:34:50.536Z,101281.16
2018-09-29T03:35:25.717Z,101279.48
2018-09-29T03:36:00.637Z,101276.48
2018-09-29T03:36:35.410Z,101279.88
2018-09-29T03:37:10.179Z,101276.91
2018-09-29T03:37:44.952Z,101279.05
2018-09-29T03:38:19.599Z,101279.45
2018-09-29T03:38:54.793Z,101280.30
2018-09-29T03:39:29.940Z,101281.16
2018-09-29T03:40:05.016Z,101279.91
2018-09-29T03:40:39.659Z,101280.77
2018-09-29T03:41:14.314Z,101276.91
2018-09-29T03:41:49.007Z,101276.48
2018-09-29T03:42:24.377Z,101282.48
2018-09-29T03:42:59.361Z,101279.88
2018-09-29T03:43:34.220Z,101283.34
2018-09-29T03:44:09.722Z,101281.16
2018-09-29T03:44:44.465Z,101284.16
2018-09-29T03:45:19.234Z,101277.77
2018-09-29T03:45:54.305Z,101237.21
2018-09-29T03:46:29.574Z,101279.95
2018-09-29T03:47:04.942Z,101281.25
2018-09-29T03:47:39.651Z,101279.53
2018-09-29T03:48:14.436Z,101277.39
2018-09-29T03:48:49.125Z,101280.81
2018-09-29T03:49:24.175Z,101278.25
2018-09-29T03:49:59.090Z,101280.85
2018-09-29T03:50:34.079Z,101276.56
2018-09-29T03:51:08.962Z,101276.95
2018-09-29T03:51:43.647Z,101283.00
2018-09-29T03:52:18.394Z,101283.86
2018-09-29T03:52:53.798Z,101280.81
2018-09-29T03:53:28.900Z,101279.56
2018-09-29T03:54:03.993Z,101283.39
2018-09-29T03:54:38.766Z,101279.09
2018-09-29T03:55:13.496Z,101276.95
2018-09-29T03:55:48.221Z,101282.14
2018-09-29T03:56:23.009Z,101282.57
2018-09-29T03:56:57.821Z,101291.14
2018-09-29T03:57:32.781Z,101281.29
2018-09-29T03:58:07.469Z,101284.72
2018-09-29T03:58:42.161Z,101286.00
2018-09-29T03:59:16.833Z,101284.29
2018-09-29T03:59:51.550Z,101280.86
2018-09-29T04:00:26.886Z,101286.86
2018-09-29T04:01:01.764Z,101281.32
2018-09-29T04:01:36.588Z,101289.47
2018-09-29T04:02:11.452Z,101287.33
2018-09-29T04:02:46.201Z,101291.61
2018-09-29T04:03:20.838Z,101278.36
2018-09-29T04:03:56.058Z,101281.79
2018-09-29T04:04:31.135Z,101287.36
2018-09-29T04:05:06.178Z,101279.18
2018-09-29T04:05:40.824Z,101286.50
2018-09-29T04:06:15.511Z,101283.08
2018-09-29T04:06:50.359Z,101286.93
2018-09-29T04:07:25.329Z,101278.82
2018-09-29T04:08:00.438Z,101284.82
2018-09-29T04:08:35.538Z,101281.79
2018-09-29T04:09:10.295Z,101290.33
2018-09-29T04:09:44.988Z,101290.75
2018-09-29T04:10:19.696Z,101288.22
2018-09-29T04:10:54.896Z,101286.53
2018-09-29T04:11:29.752Z,101283.11
2018-09-29T04:12:04.778Z,101287.82
2018-09-29T04:12:39.477Z,101288.22
2018-09-29T04:13:14.152Z,101278.39
2018-09-29T04:13:48.844Z,101282.67
2018-09-29T04:14:24.100Z,101292.14
2018-09-29T04:14:59.289Z,101287.82
2018-09-29T04:15:34.068Z,101285.28
2018-09-29T04:16:08.720Z,101290.82
2018-09-29T04:16:43.415Z,101286.53
2018-09-29T04:17:18.069Z,101283.08
2018-09-29T04:17:53.763Z,101280.11
2018-09-29T04:18:28.921Z,101277.53
2018-09-29T04:19:03.919Z,101283.53
2018-09-29T04:19:39.019Z,101279.25
2018-09-29T04:20:13.768Z,101282.67
2018-09-29T04:20:48.706Z,101280.56
2018-09-29T04:21:23.549Z,101277.56
2018-09-29T04:21:58.482Z,101278.00
2018-09-29T04:22:33.553Z,101277.56
2018-09-29T04:23:08.313Z,101281.82
2018-09-29T04:23:43.006Z,101273.67
2018-09-29T04:24:18.499Z,101272.82
2018-09-29T04:24:53.641Z,101274.53
2018-09-29T04:25:29.156Z,101277.56
2018-09-29T04:26:03.983Z,101272.39
2018-09-29T04:26:38.302Z,101272.42
2018-09-29T04:27:12.580Z,101270.28
2018-09-29T04:27:46.744Z,101271.57
2018-09-29T04:28:21.720Z,101272.85
2018-09-29T04:28:56.956Z,101273.71
2018-09-29T04:29:32.044Z,101275.39
2018-09-29T04:30:06.953Z,101274.14
2018-09-29T04:30:41.632Z,101270.68
2018-09-29T04:31:16.698Z,101266.86
2018-09-29T04:31:51.772Z,101269.85
2018-09-29T04:32:27.668Z,101268.59
2018-09-29T04:33:03.398Z,101269.45
2018-09-29T04:33:38.230Z,101275.02
2018-09-29T04:34:14.406Z,101277.59
2018-09-29T04:34:49.143Z,101277.59
2018-09-29T04:35:24.189Z,101280.59
2018-09-29T04:35:59.150Z,101279.73
2018-09-29T04:36:34.239Z,101282.77
2018-09-29T04:37:08.889Z,101290.02
2018-09-29T04:37:43.674Z,101283.16
2018-09-29T04:38:18.777Z,101289.56
2018-09-29T04:38:53.559Z,101280.17
2018-09-29T04:39:28.646Z,101284.02
2018-09-29T04:40:04.089Z,101286.59
2018-09-29T04:40:38.860Z,101281.02
2018-09-29T04:41:13.604Z,101279.77
2018-09-29T04:41:48.268Z,101282.31
2018-09-29T04:42:24.178Z,101287.02
2018-09-29T04:42:59.393Z,101282.30
2018-09-29T04:43:34.678Z,101289.59
2018-09-29T04:44:10.432Z,101284.02
2018-09-29T04:44:45.073Z,101290.45
2018-09-29T04:45:19.867Z,101281.45
2018-09-29T04:45:55.271Z,101290.02
2018-09-29T04:46:30.924Z,101280.99
2018-09-29T04:47:05.758Z,101287.45
2018-09-29T04:47:40.962Z,101284.45
2018-09-29T04:48:15.661Z,101280.59
2018-09-29T04:48:50.322Z,101285.73
2018-09-29T04:49:25.200Z,101286.16
2018-09-29T04:50:00.489Z,101294.30
2018-09-29T04:50:36.026Z,101288.31
2018-09-29T04:51:10.780Z,101290.02
2018-09-29T04:51:45.505Z,101288.76
2018-09-29T04:52:20.197Z,101293.05
2018-09-29T04:52:55.202Z,101286.62
2018-09-29T04:53:30.513Z,101293.04
2018-09-29T04:54:05.603Z,101290.47
2018-09-29T04:54:40.548Z,101292.61
2018-09-29T04:55:15.257Z,101281.93
2018-09-29T04:55:49.935Z,101289.64
2018-09-29T04:56:25.376Z,101288.36
2018-09-29T04:57:00.609Z,101292.61
2018-09-29T04:57:35.476Z,101291.36
2018-09-29T04:58:10.276Z,101298.61
2018-09-29T04:58:44.960Z,101294.75
2018-09-29T04:59:19.691Z,101294.78
2018-09-29T04:59:55.021Z,101295.21
2018-09-29T05:00:30.205Z,101299.48
2018-09-29T05:01:05.266Z,101298.20
2018-09-29T05:01:40.159Z,101299.50
2018-09-29T05:02:14.912Z,101299.92
2018-09-29T05:02:49.577Z,101290.95
2018-09-29T05:03:25.214Z,101290.52
2018-09-29T05:04:00.536Z,101293.09
2018-09-29T05:04:35.527Z,101293.06
2018-09-29T05:05:10.394Z,101294.35
2018-09-29T05:05:45.222Z,101291.35
2018-09-29T05:06:19.891Z,101287.06
2018-09-29T05:06:55.805Z,101294.77
2018-09-29T05:07:31.204Z,101298.20
2018-09-29T05:08:06.576Z,101296.52
2018-09-29T05:08:41.273Z,101293.48
2018-09-29T05:09:16.069Z,101298.63
2018-09-29T05:09:50.781Z,101295.23
2018-09-29T05:10:26.133Z,101298.22
2018-09-29T05:11:01.144Z,101292.22
2018-09-29T05:11:35.903Z,101295.23
2018-09-29T05:12:10.581Z,101292.25
2018-09-29T05:12:45.216Z,101294.82
2018-09-29T05:13:20.005Z,101298.22
2018-09-29T05:13:55.694Z,101295.23
2018-09-29T05:14:31.395Z,101299.94
2018-09-29T05:15:06.169Z,101296.48
2018-09-29T05:15:41.042Z,101298.20
2018-09-29T05:16:15.813Z,101302.94
2018-09-29T05:16:50.541Z,101296.94
2018-09-29T05:17:25.894Z,101302.08
2018-09-29T05:18:01.024Z,101298.23
2018-09-29T05:18:35.945Z,101302.52
2018-09-29T05:19:10.634Z,101293.52
2018-09-29T05:19:45.315Z,101300.79
2018-09-29T05:20:19.995Z,101302.50
2018-09-29T05:20:55.341Z,101290.95
2018-09-29T05:21:30.195Z,101292.23
2018-09-29T05:22:05.587Z,101293.52
2018-09-29T05:22:40.241Z,101291.80
2018-09-29T05:23:15.051Z,101294.80
2018-09-29T05:23:49.794Z,101291.36
2018-09-29T05:24:24.740Z,101292.66
2018-09-29T05:25:00.149Z,101290.09
2018-09-29T05:25:34.961Z,101292.23
2018-09-29T05:26:09.762Z,101293.94
2018-09-29T05:26:44.595Z,101287.10
2018-09-29T05:27:19.544Z,101291.81
2018-09-29T05:27:54.946Z,101293.95
2018-09-29T05:28:30.303Z,101299.52
2018-09-29T05:29:05.230Z,101293.53
2018-09-29T05:29:40.050Z,101296.52
2018-09-29T05:30:14.774Z,101299.09
2018-09-29T05:30:49.472Z,101295.67
2018-09-29T05:31:25.030Z,101299.98
2018-09-29T05:32:00.225Z,101292.27
2018-09-29T05:32:35.690Z,101297.84
2018-09-29T05:33:10.510Z,101299.95
2018-09-29T05:33:45.178Z,101298.66
2018-09-29T05:34:19.872Z,101301.23
2018-09-29T05:34:55.408Z,101298.66
2018-09-29T05:35:30.658Z,101299.97
2018-09-29T05:36:05.523Z,101305.94
2018-09-29T05:36:40.140Z,101304.23
2018-09-29T05:37:14.884Z,101307.66
2018-09-29T05:37:49.512Z,101313.23
2018-09-29T05:38:24.656Z,101314.91
2018-09-29T05:38:59.636Z,101313.63
2018-09-29T05:39:34.912Z,101314.95
2018-09-29T05:40:09.653Z,101309.38
2018-09-29T05:40:44.824Z,101309.37
2018-09-29T05:41:19.622Z,101317.08
2018-09-29T05:41:54.684Z,101315.35
2018-09-29T05:42:30.091Z,101316.22
2018-09-29T05:43:04.929Z,101322.20
2018-09-29T05:43:39.949Z,101325.63
2018-09-29T05:44:14.606Z,101320.92
2018-09-29T05:44:49.228Z,101320.92
2018-09-29T05:45:24.769Z,101315.37
2018-09-29T05:45:59.708Z,101321.37
2018-09-29T05:46:34.559Z,101317.08
2018-09-29T05:47:09.369Z,101320.50
2018-09-29T05:47:44.078Z,101321.34
2018-09-29T05:48:18.816Z,101320.52
2018-09-29T05:48:54.234Z,101325.66
2018-09-29T05:49:29.066Z,101320.94
2018-09-29T05:50:04.076Z,101329.48
2018-09-29T05:50:38.702Z,101331.21
2018-09-29T05:51:13.385Z,101330.77
2018-09-29T05:51:48.067Z,101331.20
2018-09-29T05:52:23.411Z,101330.77
2018-09-29T05:52:58.317Z,101332.91
2018-09-29T05:53:33.312Z,101335.07
2018-09-29T05:54:08.217Z,101331.20
2018-09-29T05:54:42.908Z,101334.20
2018-09-29T05:55:17.649Z,101333.78
2018-09-29T05:55:52.478Z,101334.61
2018-09-29T05:56:27.340Z,101330.77
2018-09-29T05:57:02.477Z,101332.06
2018-09-29T05:57:37.573Z,101337.20
2018-09-29T05:58:12.285Z,101343.17
2018-09-29T05:58:46.988Z,101335.91
2018-09-29T05:59:21.985Z,101335.46
2018-09-29T05:59:57.399Z,101344.45
2018-09-29T06:00:32.967Z,101339.75
2018-09-29T06:01:08.243Z,101338.89
2018-09-29T06:01:42.908Z,101335.90
2018-09-29T06:02:17.586Z,101344.02
2018-09-29T06:02:52.465Z,101349.59
2018-09-29T06:03:27.860Z,101347.03
2018-09-29T06:04:03.085Z,101339.76
2018-09-29T06:04:37.883Z,101348.72
2018-09-29T06:05:12.552Z,101349.16
2018-09-29T06:05:47.296Z,101346.59
2018-09-29T06:06:22.429Z,101346.16
2018-09-29T06:06:57.718Z,101350.02
2018-09-29T06:07:33.166Z,101344.90
2018-09-29T06:08:08.149Z,101343.17
2018-09-29T06:08:42.805Z,101347.02
2018-09-29T06:09:17.436Z,101348.31
2018-09-29T06:09:52.241Z,101342.75
2018-09-29T06:10:27.647Z,101344.45
2018-09-29T06:11:03.058Z,101338.47
2018-09-29T06:11:38.421Z,101338.47
2018-09-29T06:12:13.107Z,101338.87
2018-09-29T06:12:47.915Z,101343.16
2018-09-29T06:13:22.622Z,101337.19
2018-09-29T06:13:58.157Z,101345.76
2018-09-29T06:14:32.891Z,101349.61
2018-09-29T06:15:07.996Z,101344.89
2018-09-29T06:15:42.852Z,101348.30
2018-09-29T06:16:17.499Z,101345.33
2018-09-29T06:16:52.188Z,101347.47
2018-09-29T06:17:27.369Z,101350.02
2018-09-29T06:18:02.472Z,101348.31
2018-09-29T06:18:37.133Z,101347.03
2018-09-29T06:19:11.801Z,101342.74
2018-09-29T06:19:46.536Z,101342.33
2018-09-29T06:20:21.268Z,101341.87
2018-09-29T06:20:56.397Z,101343.19
2018-09-29T06:21:31.555Z,101346.59
2018-09-29T06:22:07.530Z,101351.28
2018-09-29T06:22:42.258Z,101352.99
2018-09-29T06:23:16.917Z,101353.86
2018-09-29T06:23:51.566Z,101353.86
2018-09-29T06:24:26.678Z,101343.98
2018-09-29T06:25:02.087Z,101355.13
2018-09-29T06:25:36.843Z,101349.55
2018-09-29T06:26:11.510Z,101356.81
2018-09-29T06:26:46.262Z,101351.27
2018-09-29T06:27:20.911Z,101353.81
2018-09-29T06:27:56.339Z,101352.50
2018-09-29T06:28:31.604Z,101359.30
2018-09-29T06:29:07.183Z,101355.45
2018-09-29T06:29:41.838Z,101350.30
2018-09-29T06:30:16.476Z,101354.16
2018-09-29T06:30:51.423Z,101351.59
2018-09-29T06:31:26.436Z,101352.84
2018-09-29T06:32:01.496Z,101352.02
2018-09-29T06:32:36.760Z,101347.73
2018-09-29T06:33:11.421Z,101349.02
2018-09-29T06:33:46.057Z,101350.73
2018-09-29T06:34:20.777Z,101346.48
2018-09-29T06:34:56.339Z,101342.63
2018-09-29T06:35:31.461Z,101344.34
2018-09-29T06:36:06.310Z,101349.48
2018-09-29T06:36:41.269Z,101352.02
2018-09-29T06:37:16.193Z,101351.95
2018-09-29T06:37:50.986Z,101348.92
2018-09-29T06:38:26.217Z,101343.80